sensor_id;sensor_type;location;lat;lon;timestamp;temperature;humidity
20856;DHT22;63058;49.424;8.420;2022-09-01T00:01:01;20.80;71.80
20856;DHT22;63058;49.424;8.420;2022-09-01T00:03:28;20.70;71.70
20856;DHT22;63058;49.424;8.420;2022-09-01T00:05:54;20.70;71.50
20856;DHT22;63058;49.424;8.420;2022-09-01T00:08:22;20.70;71.60
20856;DHT22;63058;49.424;8.420;2022-09-01T00:10:48;20.60;71.50
20856;DHT22;63058;49.424;8.420;2022-09-01T00:13:15;20.60;71.70
20856;DHT22;63058;49.424;8.420;2022-09-01T00:15:41;20.50;71.90
20856;DHT22;63058;49.424;8.420;2022-09-01T00:18:07;20.50;72.10
20856;DHT22;63058;49.424;8.420;2022-09-01T00:20:33;20.50;73.00
20856;DHT22;63058;49.424;8.420;2022-09-01T00:22:59;20.50;72.20
20856;DHT22;63058;49.424;8.420;2022-09-01T00:25:25;20.40;72.30
20856;DHT22;63058;49.424;8.420;2022-09-01T00:27:52;20.40;72.20
20856;DHT22;63058;49.424;8.420;2022-09-01T00:30:19;20.40;72.20
20856;DHT22;63058;49.424;8.420;2022-09-01T00:32:45;20.40;72.30
20856;DHT22;63058;49.424;8.420;2022-09-01T00:35:14;20.40;72.30
20856;DHT22;63058;49.424;8.420;2022-09-01T00:37:39;20.40;72.30
20856;DHT22;63058;49.424;8.420;2022-09-01T00:40:05;20.40;72.30
20856;DHT22;63058;49.424;8.420;2022-09-01T00:42:31;20.30;72.40
20856;DHT22;63058;49.424;8.420;2022-09-01T00:44:57;20.30;72.60
20856;DHT22;63058;49.424;8.420;2022-09-01T00:47:22;20.20;72.90
20856;DHT22;63058;49.424;8.420;2022-09-01T00:49:50;20.20;72.90
20856;DHT22;63058;49.424;8.420;2022-09-01T00:52:21;20.20;72.50
20856;DHT22;63058;49.424;8.420;2022-09-01T00:54:51;20.20;72.30
20856;DHT22;63058;49.424;8.420;2022-09-01T00:57:18;20.10;72.30
20856;DHT22;63058;49.424;8.420;2022-09-01T01:00:14;20.10;72.70
20856;DHT22;63058;49.424;8.420;2022-09-01T01:02:39;20.00;72.40
20856;DHT22;63058;49.424;8.420;2022-09-01T01:05:05;20.00;73.00
20856;DHT22;63058;49.424;8.420;2022-09-01T01:07:32;20.00;73.10
20856;DHT22;63058;49.424;8.420;2022-09-01T01:10:05;20.00;73.00
20856;DHT22;63058;49.424;8.420;2022-09-01T01:12:31;19.90;73.10
20856;DHT22;63058;49.424;8.420;2022-09-01T01:14:58;19.90;73.10
20856;DHT22;63058;49.424;8.420;2022-09-01T01:17:24;19.90;73.10
20856;DHT22;63058;49.424;8.420;2022-09-01T01:19:54;19.80;73.00
20856;DHT22;63058;49.424;8.420;2022-09-01T01:22:42;19.80;73.00
20856;DHT22;63058;49.424;8.420;2022-09-01T01:25:28;19.90;73.40
20856;DHT22;63058;49.424;8.420;2022-09-01T01:28:14;19.70;73.10
20856;DHT22;63058;49.424;8.420;2022-09-01T01:30:43;19.60;72.00
20856;DHT22;63058;49.424;8.420;2022-09-01T01:33:10;19.60;72.60
20856;DHT22;63058;49.424;8.420;2022-09-01T01:35:36;19.50;72.70
20856;DHT22;63058;49.424;8.420;2022-09-01T01:38:03;19.40;72.90
20856;DHT22;63058;49.424;8.420;2022-09-01T01:40:31;19.30;73.30
20856;DHT22;63058;49.424;8.420;2022-09-01T01:42:57;19.20;73.70
20856;DHT22;63058;49.424;8.420;2022-09-01T01:45:24;19.10;74.10
20856;DHT22;63058;49.424;8.420;2022-09-01T01:47:51;19.10;74.40
20856;DHT22;63058;49.424;8.420;2022-09-01T01:50:27;19.20;74.80
20856;DHT22;63058;49.424;8.420;2022-09-01T01:52:54;19.10;74.60
20856;DHT22;63058;49.424;8.420;2022-09-01T01:55:21;19.10;75.10
20856;DHT22;63058;49.424;8.420;2022-09-01T01:57:49;19.20;75.20
20856;DHT22;63058;49.424;8.420;2022-09-01T02:00:20;19.20;75.20
20856;DHT22;63058;49.424;8.420;2022-09-01T02:02:47;19.30;74.70
20856;DHT22;63058;49.424;8.420;2022-09-01T02:05:18;19.30;74.90
20856;DHT22;63058;49.424;8.420;2022-09-01T02:07:46;19.30;74.70
20856;DHT22;63058;49.424;8.420;2022-09-01T02:10:12;19.40;74.80
20856;DHT22;63058;49.424;8.420;2022-09-01T02:12:38;19.40;75.50
20856;DHT22;63058;49.424;8.420;2022-09-01T02:15:07;19.40;74.70
20856;DHT22;63058;49.424;8.420;2022-09-01T02:17:33;19.40;74.60
20856;DHT22;63058;49.424;8.420;2022-09-01T02:19:59;19.50;74.60
20856;DHT22;63058;49.424;8.420;2022-09-01T02:22:24;19.50;74.60
20856;DHT22;63058;49.424;8.420;2022-09-01T02:24:50;19.50;74.70
20856;DHT22;63058;49.424;8.420;2022-09-01T02:27:18;19.50;74.60
20856;DHT22;63058;49.424;8.420;2022-09-01T02:29:50;19.50;74.60
20856;DHT22;63058;49.424;8.420;2022-09-01T02:32:16;19.50;75.30
20856;DHT22;63058;49.424;8.420;2022-09-01T02:34:43;19.50;74.60
20856;DHT22;63058;49.424;8.420;2022-09-01T02:37:10;19.50;74.70
20856;DHT22;63058;49.424;8.420;2022-09-01T02:39:36;19.60;74.70
20856;DHT22;63058;49.424;8.420;2022-09-01T02:42:01;19.50;74.60
20856;DHT22;63058;49.424;8.420;2022-09-01T02:44:27;19.50;74.40
20856;DHT22;63058;49.424;8.420;2022-09-01T02:46:56;19.50;74.20
20856;DHT22;63058;49.424;8.420;2022-09-01T02:49:23;19.50;74.10
20856;DHT22;63058;49.424;8.420;2022-09-01T02:51:55;19.50;74.20
20856;DHT22;63058;49.424;8.420;2022-09-01T02:54:24;19.50;74.20
20856;DHT22;63058;49.424;8.420;2022-09-01T02:56:50;19.60;74.60
20856;DHT22;63058;49.424;8.420;2022-09-01T02:59:19;19.60;74.70
20856;DHT22;63058;49.424;8.420;2022-09-01T03:01:47;19.70;74.40
20856;DHT22;63058;49.424;8.420;2022-09-01T03:04:14;19.60;74.00
20856;DHT22;63058;49.424;8.420;2022-09-01T03:06:40;19.60;74.00
20856;DHT22;63058;49.424;8.420;2022-09-01T03:09:09;19.50;74.10
20856;DHT22;63058;49.424;8.420;2022-09-01T03:11:37;19.50;73.90
20856;DHT22;63058;49.424;8.420;2022-09-01T03:14:04;19.40;74.00
20856;DHT22;63058;49.424;8.420;2022-09-01T03:16:30;19.40;74.20
20856;DHT22;63058;49.424;8.420;2022-09-01T03:18:57;19.40;74.40
20856;DHT22;63058;49.424;8.420;2022-09-01T03:21:23;19.40;74.50
20856;DHT22;63058;49.424;8.420;2022-09-01T03:23:51;19.40;74.50
20856;DHT22;63058;49.424;8.420;2022-09-01T03:26:19;19.40;74.30
20856;DHT22;63058;49.424;8.420;2022-09-01T03:28:47;19.40;74.20
20856;DHT22;63058;49.424;8.420;2022-09-01T03:31:14;19.40;74.20
20856;DHT22;63058;49.424;8.420;2022-09-01T03:33:40;19.40;74.10
20856;DHT22;63058;49.424;8.420;2022-09-01T03:36:07;19.30;74.20
20856;DHT22;63058;49.424;8.420;2022-09-01T03:38:33;19.30;74.30
20856;DHT22;63058;49.424;8.420;2022-09-01T03:41:01;19.40;74.20
20856;DHT22;63058;49.424;8.420;2022-09-01T03:43:32;19.40;74.10
20856;DHT22;63058;49.424;8.420;2022-09-01T03:45:58;19.40;73.60
20856;DHT22;63058;49.424;8.420;2022-09-01T03:48:29;19.30;73.80
20856;DHT22;63058;49.424;8.420;2022-09-01T03:50:57;19.30;73.80
20856;DHT22;63058;49.424;8.420;2022-09-01T03:53:27;19.20;73.70
20856;DHT22;63058;49.424;8.420;2022-09-01T03:55:54;19.20;73.80
20856;DHT22;63058;49.424;8.420;2022-09-01T03:58:20;19.10;74.00
20856;DHT22;63058;49.424;8.420;2022-09-01T04:00:51;19.20;74.20
20856;DHT22;63058;49.424;8.420;2022-09-01T04:03:25;19.10;74.00
20856;DHT22;63058;49.424;8.420;2022-09-01T04:05:52;19.00;74.40
20856;DHT22;63058;49.424;8.420;2022-09-01T04:08:19;18.90;74.20
20856;DHT22;63058;49.424;8.420;2022-09-01T04:10:49;18.90;74.40
20856;DHT22;63058;49.424;8.420;2022-09-01T04:13:27;18.90;74.70
20856;DHT22;63058;49.424;8.420;2022-09-01T04:15:55;18.80;74.60
20856;DHT22;63058;49.424;8.420;2022-09-01T04:18:21;18.80;75.00
20856;DHT22;63058;49.424;8.420;2022-09-01T04:20:50;18.90;75.30
20856;DHT22;63058;49.424;8.420;2022-09-01T04:25:47;18.80;75.20
20856;DHT22;63058;49.424;8.420;2022-09-01T04:28:14;18.80;75.30
20856;DHT22;63058;49.424;8.420;2022-09-01T04:30:52;18.80;75.30
20856;DHT22;63058;49.424;8.420;2022-09-01T04:33:21;18.80;75.20
20856;DHT22;63058;49.424;8.420;2022-09-01T04:35:47;18.80;75.20
20856;DHT22;63058;49.424;8.420;2022-09-01T04:38:14;18.90;75.30
20856;DHT22;63058;49.424;8.420;2022-09-01T04:40:43;18.80;75.20
20856;DHT22;63058;49.424;8.420;2022-09-01T04:43:09;18.80;74.90
20856;DHT22;63058;49.424;8.420;2022-09-01T04:45:35;18.80;75.20
20856;DHT22;63058;49.424;8.420;2022-09-01T04:48:02;18.80;75.20
20856;DHT22;63058;49.424;8.420;2022-09-01T04:50:29;18.80;75.00
20856;DHT22;63058;49.424;8.420;2022-09-01T04:52:57;18.80;75.10
20856;DHT22;63058;49.424;8.420;2022-09-01T04:55:26;18.80;74.90
20856;DHT22;63058;49.424;8.420;2022-09-01T04:57:55;18.80;75.20
20856;DHT22;63058;49.424;8.420;2022-09-01T05:00:23;18.80;75.20
20856;DHT22;63058;49.424;8.420;2022-09-01T05:02:50;18.70;75.20
20856;DHT22;63058;49.424;8.420;2022-09-01T05:05:19;18.70;75.30
20856;DHT22;63058;49.424;8.420;2022-09-01T05:07:45;18.70;75.30
20856;DHT22;63058;49.424;8.420;2022-09-01T05:10:11;18.70;75.30
20856;DHT22;63058;49.424;8.420;2022-09-01T05:12:38;18.70;75.40
20856;DHT22;63058;49.424;8.420;2022-09-01T05:15:05;18.70;75.50
20856;DHT22;63058;49.424;8.420;2022-09-01T05:17:33;18.70;75.60
20856;DHT22;63058;49.424;8.420;2022-09-01T05:20:03;18.70;75.60
20856;DHT22;63058;49.424;8.420;2022-09-01T05:22:28;18.70;75.60
20856;DHT22;63058;49.424;8.420;2022-09-01T05:24:57;18.60;75.50
20856;DHT22;63058;49.424;8.420;2022-09-01T05:27:27;18.60;75.60
20856;DHT22;63058;49.424;8.420;2022-09-01T05:29:53;18.60;75.80
20856;DHT22;63058;49.424;8.420;2022-09-01T05:32:19;18.60;75.90
20856;DHT22;63058;49.424;8.420;2022-09-01T05:34:50;18.60;76.10
20856;DHT22;63058;49.424;8.420;2022-09-01T05:37:18;18.70;76.50
20856;DHT22;63058;49.424;8.420;2022-09-01T05:39:45;18.70;76.60
20856;DHT22;63058;49.424;8.420;2022-09-01T05:42:10;18.70;76.60
20856;DHT22;63058;49.424;8.420;2022-09-01T05:44:38;18.90;76.60
20856;DHT22;63058;49.424;8.420;2022-09-01T05:47:08;19.00;76.10
20856;DHT22;63058;49.424;8.420;2022-09-01T05:49:36;19.00;76.20
20856;DHT22;63058;49.424;8.420;2022-09-01T05:52:04;19.00;76.20
20856;DHT22;63058;49.424;8.420;2022-09-01T05:54:29;19.10;76.40
20856;DHT22;63058;49.424;8.420;2022-09-01T05:56:57;19.20;76.60
20856;DHT22;63058;49.424;8.420;2022-09-01T05:59:27;19.20;76.70
20856;DHT22;63058;49.424;8.420;2022-09-01T06:01:55;19.30;76.80
20856;DHT22;63058;49.424;8.420;2022-09-01T06:04:23;19.40;76.80
20856;DHT22;63058;49.424;8.420;2022-09-01T06:06:49;19.50;76.80
20856;DHT22;63058;49.424;8.420;2022-09-01T06:09:16;19.60;76.90
20856;DHT22;63058;49.424;8.420;2022-09-01T06:11:43;19.70;76.60
20856;DHT22;63058;49.424;8.420;2022-09-01T06:14:16;19.70;76.80
20856;DHT22;63058;49.424;8.420;2022-09-01T06:16:42;19.90;76.90
20856;DHT22;63058;49.424;8.420;2022-09-01T06:19:08;19.90;76.90
20856;DHT22;63058;49.424;8.420;2022-09-01T06:21:35;20.00;77.10
20856;DHT22;63058;49.424;8.420;2022-09-01T06:24:09;20.10;77.10
20856;DHT22;63058;49.424;8.420;2022-09-01T06:26:38;20.20;77.40
20856;DHT22;63058;49.424;8.420;2022-09-01T06:29:10;20.20;77.00
20856;DHT22;63058;49.424;8.420;2022-09-01T06:31:44;20.30;76.40
20856;DHT22;63058;49.424;8.420;2022-09-01T06:34:22;20.30;76.40
20856;DHT22;63058;49.424;8.420;2022-09-01T06:36:48;20.40;76.80
20856;DHT22;63058;49.424;8.420;2022-09-01T06:39:28;20.50;76.60
20856;DHT22;63058;49.424;8.420;2022-09-01T06:42:03;20.50;75.80
20856;DHT22;63058;49.424;8.420;2022-09-01T06:44:47;20.50;76.10
20856;DHT22;63058;49.424;8.420;2022-09-01T06:47:23;20.50;75.80
20856;DHT22;63058;49.424;8.420;2022-09-01T06:50:03;20.60;75.80
20856;DHT22;63058;49.424;8.420;2022-09-01T06:52:38;20.70;75.70
20856;DHT22;63058;49.424;8.420;2022-09-01T06:55:16;20.70;76.10
20856;DHT22;63058;49.424;8.420;2022-09-01T06:57:50;20.70;75.30
20856;DHT22;63058;49.424;8.420;2022-09-01T07:00:29;20.90;75.50
20856;DHT22;63058;49.424;8.420;2022-09-01T07:03:00;20.80;75.40
20856;DHT22;63058;49.424;8.420;2022-09-01T07:05:38;20.80;75.50
20856;DHT22;63058;49.424;8.420;2022-09-01T07:08:15;21.00;76.00
20856;DHT22;63058;49.424;8.420;2022-09-01T07:10:59;21.10;75.80
20856;DHT22;63058;49.424;8.420;2022-09-01T07:14:12;21.20;75.00
20856;DHT22;63058;49.424;8.420;2022-09-01T07:16:51;21.20;74.00
20856;DHT22;63058;49.424;8.420;2022-09-01T07:19:23;21.30;76.50
20856;DHT22;63058;49.424;8.420;2022-09-01T07:22:24;21.30;75.60
20856;DHT22;63058;49.424;8.420;2022-09-01T07:29:17;21.70;74.10
20856;DHT22;63058;49.424;8.420;2022-09-01T07:42:11;21.80;73.20
20856;DHT22;63058;49.424;8.420;2022-09-01T07:44:58;22.00;74.20
20856;DHT22;63058;49.424;8.420;2022-09-01T07:51:26;22.10;74.90
20856;DHT22;63058;49.424;8.420;2022-09-01T07:57:16;22.20;74.10
20856;DHT22;63058;49.424;8.420;2022-09-01T07:59:58;22.40;75.00
20856;DHT22;63058;49.424;8.420;2022-09-01T08:02:27;22.50;74.90
20856;DHT22;63058;49.424;8.420;2022-09-01T08:07:56;22.90;75.90
20856;DHT22;63058;49.424;8.420;2022-09-01T08:13:52;23.30;75.70
20856;DHT22;63058;49.424;8.420;2022-09-01T08:16:19;23.50;76.10
20856;DHT22;63058;49.424;8.420;2022-09-01T08:18:46;23.70;75.60
20856;DHT22;63058;49.424;8.420;2022-09-01T08:21:13;23.80;74.90
20856;DHT22;63058;49.424;8.420;2022-09-01T08:23:39;23.90;74.50
20856;DHT22;63058;49.424;8.420;2022-09-01T08:26:12;24.00;74.00
20856;DHT22;63058;49.424;8.420;2022-09-01T08:28:38;24.10;73.00
20856;DHT22;63058;49.424;8.420;2022-09-01T08:31:16;24.10;73.90
20856;DHT22;63058;49.424;8.420;2022-09-01T08:33:42;24.20;72.00
20856;DHT22;63058;49.424;8.420;2022-09-01T08:36:11;24.30;73.80
20856;DHT22;63058;49.424;8.420;2022-09-01T08:38:37;24.40;72.80
20856;DHT22;63058;49.424;8.420;2022-09-01T08:41:11;24.50;72.90
20856;DHT22;63058;49.424;8.420;2022-09-01T08:46:18;24.50;70.30
20856;DHT22;63058;49.424;8.420;2022-09-01T08:48:50;24.60;71.20
20856;DHT22;63058;49.424;8.420;2022-09-01T08:51:51;24.60;71.10
20856;DHT22;63058;49.424;8.420;2022-09-01T08:54:47;24.60;69.40
20856;DHT22;63058;49.424;8.420;2022-09-01T08:57:18;24.60;69.60
20856;DHT22;63058;49.424;8.420;2022-09-01T08:59:44;24.60;71.20
20856;DHT22;63058;49.424;8.420;2022-09-01T09:05:02;24.70;71.60
20856;DHT22;63058;49.424;8.420;2022-09-01T09:10:24;24.70;69.20
20856;DHT22;63058;49.424;8.420;2022-09-01T09:15:41;24.80;70.30
20856;DHT22;63058;49.424;8.420;2022-09-01T09:21:05;24.90;70.90
20856;DHT22;63058;49.424;8.420;2022-09-01T09:23:37;25.00;70.70
20856;DHT22;63058;49.424;8.420;2022-09-01T09:26:05;25.10;70.40
20856;DHT22;63058;49.424;8.420;2022-09-01T09:28:30;25.10;70.70
20856;DHT22;63058;49.424;8.420;2022-09-01T09:33:49;25.10;67.70
20856;DHT22;63058;49.424;8.420;2022-09-01T09:36:21;25.10;70.40
20856;DHT22;63058;49.424;8.420;2022-09-01T09:39:06;25.10;69.30
20856;DHT22;63058;49.424;8.420;2022-09-01T09:41:32;25.20;68.60
20856;DHT22;63058;49.424;8.420;2022-09-01T09:44:27;25.40;70.70
20856;DHT22;63058;49.424;8.420;2022-09-01T09:46:54;25.40;69.00
20856;DHT22;63058;49.424;8.420;2022-09-01T09:49:32;25.50;70.80
20856;DHT22;63058;49.424;8.420;2022-09-01T09:54:32;25.70;68.90
20856;DHT22;63058;49.424;8.420;2022-09-01T09:57:16;25.80;68.70
20856;DHT22;63058;49.424;8.420;2022-09-01T09:59:48;25.90;67.00
20856;DHT22;63058;49.424;8.420;2022-09-01T10:02:40;26.00;68.70
20856;DHT22;63058;49.424;8.420;2022-09-01T10:08:37;26.20;68.10
20856;DHT22;63058;49.424;8.420;2022-09-01T10:11:10;26.30;67.00
20856;DHT22;63058;49.424;8.420;2022-09-01T10:13:37;26.30;69.10
20856;DHT22;63058;49.424;8.420;2022-09-01T10:16:12;26.40;69.50
20856;DHT22;63058;49.424;8.420;2022-09-01T10:18:43;26.50;68.00
20856;DHT22;63058;49.424;8.420;2022-09-01T10:21:20;26.60;68.30
20856;DHT22;63058;49.424;8.420;2022-09-01T10:23:48;26.70;66.10
20856;DHT22;63058;49.424;8.420;2022-09-01T10:26:39;26.80;68.70
20856;DHT22;63058;49.424;8.420;2022-09-01T10:29:15;27.10;67.30
20856;DHT22;63058;49.424;8.420;2022-09-01T10:31:43;27.30;67.60
20856;DHT22;63058;49.424;8.420;2022-09-01T10:34:13;27.60;69.20
20856;DHT22;63058;49.424;8.420;2022-09-01T10:36:43;27.80;67.60
20856;DHT22;63058;49.424;8.420;2022-09-01T10:39:11;28.10;68.10
20856;DHT22;63058;49.424;8.420;2022-09-01T10:41:57;28.30;67.40
20856;DHT22;63058;49.424;8.420;2022-09-01T10:44:37;28.50;63.70
20856;DHT22;63058;49.424;8.420;2022-09-01T10:47:09;28.60;62.70
20856;DHT22;63058;49.424;8.420;2022-09-01T10:53:13;28.80;63.50
20856;DHT22;63058;49.424;8.420;2022-09-01T10:55:42;29.10;63.10
20856;DHT22;63058;49.424;8.420;2022-09-01T10:58:24;29.50;63.00
20856;DHT22;63058;49.424;8.420;2022-09-01T11:00:54;30.00;64.90
20856;DHT22;63058;49.424;8.420;2022-09-01T11:06:06;30.80;65.30
20856;DHT22;63058;49.424;8.420;2022-09-01T11:13:41;31.40;60.30
20856;DHT22;63058;49.424;8.420;2022-09-01T11:18:55;31.80;58.30
20856;DHT22;63058;49.424;8.420;2022-09-01T11:21:40;32.10;61.70
20856;DHT22;63058;49.424;8.420;2022-09-01T11:30:39;32.50;54.90
20856;DHT22;63058;49.424;8.420;2022-09-01T11:36:52;32.50;55.80
20856;DHT22;63058;49.424;8.420;2022-09-01T11:39:04;32.30;54.80
20856;DHT22;63058;49.424;8.420;2022-09-01T11:47:31;32.20;55.70
20856;DHT22;63058;49.424;8.420;2022-09-01T11:50:22;32.20;55.50
20856;DHT22;63058;49.424;8.420;2022-09-01T11:52:58;32.20;54.90
20856;DHT22;63058;49.424;8.420;2022-09-01T11:55:44;32.30;56.30
20856;DHT22;63058;49.424;8.420;2022-09-01T11:58:30;32.30;56.60
20856;DHT22;63058;49.424;8.420;2022-09-01T12:01:38;32.40;54.40
20856;DHT22;63058;49.424;8.420;2022-09-01T12:04:24;32.30;54.60
20856;DHT22;63058;49.424;8.420;2022-09-01T12:06:54;32.40;54.80
20856;DHT22;63058;49.424;8.420;2022-09-01T12:09:20;32.50;58.80
20856;DHT22;63058;49.424;8.420;2022-09-01T12:11:46;32.70;58.90
20856;DHT22;63058;49.424;8.420;2022-09-01T12:14:20;33.00;58.90
20856;DHT22;63058;49.424;8.420;2022-09-01T12:17:04;33.30;56.70
20856;DHT22;63058;49.424;8.420;2022-09-01T12:19:33;33.60;56.60
20856;DHT22;63058;49.424;8.420;2022-09-01T12:22:25;34.00;58.10
20856;DHT22;63058;49.424;8.420;2022-09-01T12:24:52;34.30;55.00
20856;DHT22;63058;49.424;8.420;2022-09-01T12:27:19;34.60;56.90
20856;DHT22;63058;49.424;8.420;2022-09-01T12:29:47;34.90;57.40
20856;DHT22;63058;49.424;8.420;2022-09-01T12:32:14;35.10;55.90
20856;DHT22;63058;49.424;8.420;2022-09-01T12:34:42;35.10;53.70
20856;DHT22;63058;49.424;8.420;2022-09-01T12:39:44;34.90;53.20
20856;DHT22;63058;49.424;8.420;2022-09-01T12:47:08;34.70;53.30
20856;DHT22;63058;49.424;8.420;2022-09-01T12:49:36;34.70;52.50
20856;DHT22;63058;49.424;8.420;2022-09-01T12:52:11;34.80;53.80
20856;DHT22;63058;49.424;8.420;2022-09-01T12:54:38;34.90;52.30
20856;DHT22;63058;49.424;8.420;2022-09-01T12:57:04;35.10;55.60
20856;DHT22;63058;49.424;8.420;2022-09-01T12:59:30;35.40;56.30
20856;DHT22;63058;49.424;8.420;2022-09-01T13:01:56;35.90;56.60
20856;DHT22;63058;49.424;8.420;2022-09-01T13:04:29;36.40;56.50
20856;DHT22;63058;49.424;8.420;2022-09-01T13:07:03;36.90;51.50
20856;DHT22;63058;49.424;8.420;2022-09-01T13:09:28;37.40;52.50
20856;DHT22;63058;49.424;8.420;2022-09-01T13:12:09;37.80;52.80
20856;DHT22;63058;49.424;8.420;2022-09-01T13:14:34;38.10;49.90
20856;DHT22;63058;49.424;8.420;2022-09-01T13:17:00;38.40;52.60
20856;DHT22;63058;49.424;8.420;2022-09-01T13:19:26;38.70;53.50
20856;DHT22;63058;49.424;8.420;2022-09-01T13:21:52;39.10;52.80
20856;DHT22;63058;49.424;8.420;2022-09-01T13:24:17;39.40;52.40
20856;DHT22;63058;49.424;8.420;2022-09-01T13:26:44;39.80;51.40
20856;DHT22;63058;49.424;8.420;2022-09-01T13:29:12;40.10;50.80
20856;DHT22;63058;49.424;8.420;2022-09-01T13:31:37;40.40;50.90
20856;DHT22;63058;49.424;8.420;2022-09-01T13:34:03;40.70;50.80
20856;DHT22;63058;49.424;8.420;2022-09-01T13:36:28;40.80;48.60
20856;DHT22;63058;49.424;8.420;2022-09-01T13:38:54;40.80;47.30
20856;DHT22;63058;49.424;8.420;2022-09-01T13:41:19;40.70;47.30
20856;DHT22;63058;49.424;8.420;2022-09-01T13:43:45;40.70;46.90
20856;DHT22;63058;49.424;8.420;2022-09-01T13:46:11;40.70;47.60
20856;DHT22;63058;49.424;8.420;2022-09-01T13:48:37;40.70;46.90
20856;DHT22;63058;49.424;8.420;2022-09-01T13:51:03;40.50;45.60
20856;DHT22;63058;49.424;8.420;2022-09-01T13:53:28;40.40;45.80
20856;DHT22;63058;49.424;8.420;2022-09-01T13:55:54;40.40;45.80
20856;DHT22;63058;49.424;8.420;2022-09-01T13:58:20;40.30;46.40
20856;DHT22;63058;49.424;8.420;2022-09-01T14:00:46;40.40;47.10
20856;DHT22;63058;49.424;8.420;2022-09-01T14:03:15;40.60;47.00
20856;DHT22;63058;49.424;8.420;2022-09-01T14:05:44;40.70;46.00
20856;DHT22;63058;49.424;8.420;2022-09-01T14:08:11;40.90;45.70
20856;DHT22;63058;49.424;8.420;2022-09-01T14:10:41;41.10;46.20
20856;DHT22;63058;49.424;8.420;2022-09-01T14:20:50;42.30;46.70
20856;DHT22;63058;49.424;8.420;2022-09-01T14:23:17;42.50;45.30
20856;DHT22;63058;49.424;8.420;2022-09-01T14:25:46;42.80;44.80
20856;DHT22;63058;49.424;8.420;2022-09-01T14:28:12;42.80;44.00
20856;DHT22;63058;49.424;8.420;2022-09-01T14:30:41;42.70;42.50
20856;DHT22;63058;49.424;8.420;2022-09-01T14:33:40;42.30;39.80
20856;DHT22;63058;49.424;8.420;2022-09-01T14:43:01;41.50;41.70
20856;DHT22;63058;49.424;8.420;2022-09-01T14:45:27;41.60;45.20
20856;DHT22;63058;49.424;8.420;2022-09-01T14:47:57;41.80;45.40
20856;DHT22;63058;49.424;8.420;2022-09-01T14:50:23;42.00;44.50
20856;DHT22;63058;49.424;8.420;2022-09-01T14:52:52;42.20;44.80
20856;DHT22;63058;49.424;8.420;2022-09-01T14:55:18;42.50;44.10
20856;DHT22;63058;49.424;8.420;2022-09-01T14:57:43;42.70;44.20
20856;DHT22;63058;49.424;8.420;2022-09-01T15:00:11;42.90;44.00
20856;DHT22;63058;49.424;8.420;2022-09-01T15:02:38;43.20;43.40
20856;DHT22;63058;49.424;8.420;2022-09-01T15:05:04;43.40;43.40
20856;DHT22;63058;49.424;8.420;2022-09-01T15:07:33;43.70;43.40
20856;DHT22;63058;49.424;8.420;2022-09-01T15:09:59;43.90;42.50
20856;DHT22;63058;49.424;8.420;2022-09-01T15:12:27;44.10;42.90
20856;DHT22;63058;49.424;8.420;2022-09-01T15:14:58;44.30;41.80
20856;DHT22;63058;49.424;8.420;2022-09-01T15:17:25;44.40;41.10
20856;DHT22;63058;49.424;8.420;2022-09-01T15:19:50;44.60;40.70
20856;DHT22;63058;49.424;8.420;2022-09-01T15:22:16;44.60;40.20
20856;DHT22;63058;49.424;8.420;2022-09-01T15:24:42;44.60;40.00
20856;DHT22;63058;49.424;8.420;2022-09-01T15:27:08;44.50;39.30
20856;DHT22;63058;49.424;8.420;2022-09-01T15:29:35;44.40;39.80
20856;DHT22;63058;49.424;8.420;2022-09-01T15:32:11;44.30;38.80
20856;DHT22;63058;49.424;8.420;2022-09-01T15:34:37;44.10;30.00
20856;DHT22;63058;49.424;8.420;2022-09-01T15:37:03;44.00;28.90
20856;DHT22;63058;49.424;8.420;2022-09-01T15:39:29;43.90;33.70
20856;DHT22;63058;49.424;8.420;2022-09-01T15:41:55;43.70;35.60
20856;DHT22;63058;49.424;8.420;2022-09-01T15:44:21;43.70;35.30
20856;DHT22;63058;49.424;8.420;2022-09-01T15:46:47;43.60;36.40
20856;DHT22;63058;49.424;8.420;2022-09-01T15:49:13;43.60;37.30
20856;DHT22;63058;49.424;8.420;2022-09-01T15:51:40;43.60;37.50
20856;DHT22;63058;49.424;8.420;2022-09-01T15:54:10;43.70;37.30
20856;DHT22;63058;49.424;8.420;2022-09-01T15:56:36;43.60;36.50
20856;DHT22;63058;49.424;8.420;2022-09-01T15:59:05;43.60;36.60
20856;DHT22;63058;49.424;8.420;2022-09-01T16:01:34;43.30;35.30
20856;DHT22;63058;49.424;8.420;2022-09-01T16:04:02;42.80;35.10
20856;DHT22;63058;49.424;8.420;2022-09-01T16:06:28;42.40;35.10
20856;DHT22;63058;49.424;8.420;2022-09-01T16:08:54;41.70;34.40
20856;DHT22;63058;49.424;8.420;2022-09-01T16:11:21;40.90;34.60
20856;DHT22;63058;49.424;8.420;2022-09-01T16:13:48;40.20;34.70
20856;DHT22;63058;49.424;8.420;2022-09-01T16:16:55;39.50;34.70
20856;DHT22;63058;49.424;8.420;2022-09-01T16:19:52;38.50;33.40
20856;DHT22;63058;49.424;8.420;2022-09-01T16:22:28;37.50;33.90
20856;DHT22;63058;49.424;8.420;2022-09-01T16:24:59;36.60;35.50
20856;DHT22;63058;49.424;8.420;2022-09-01T16:27:35;35.60;35.50
20856;DHT22;63058;49.424;8.420;2022-09-01T16:30:08;34.80;35.80
20856;DHT22;63058;49.424;8.420;2022-09-01T16:32:37;34.20;37.30
20856;DHT22;63058;49.424;8.420;2022-09-01T16:35:06;33.70;38.00
20856;DHT22;63058;49.424;8.420;2022-09-01T16:40:11;32.70;38.40
20856;DHT22;63058;49.424;8.420;2022-09-01T16:42:49;32.40;39.80
20856;DHT22;63058;49.424;8.420;2022-09-01T16:51:01;31.50;40.10
20856;DHT22;63058;49.424;8.420;2022-09-01T16:53:50;31.30;40.70
20856;DHT22;63058;49.424;8.420;2022-09-01T16:56:49;31.10;40.20
20856;DHT22;63058;49.424;8.420;2022-09-01T16:59:28;30.90;40.50
20856;DHT22;63058;49.424;8.420;2022-09-01T17:15:26;30.10;42.50
20856;DHT22;63058;49.424;8.420;2022-09-01T17:21:34;29.80;42.20
20856;DHT22;63058;49.424;8.420;2022-09-01T17:28:01;29.70;42.60
20856;DHT22;63058;49.424;8.420;2022-09-01T17:30:30;29.50;43.40
20856;DHT22;63058;49.424;8.420;2022-09-01T17:33:14;29.50;43.80
20856;DHT22;63058;49.424;8.420;2022-09-01T17:39:12;29.20;43.20
20856;DHT22;63058;49.424;8.420;2022-09-01T17:41:55;29.20;43.50
20856;DHT22;63058;49.424;8.420;2022-09-01T17:47:20;28.90;42.90
20856;DHT22;63058;49.424;8.420;2022-09-01T17:52:56;28.70;43.20
20856;DHT22;63058;49.424;8.420;2022-09-01T18:01:14;28.30;44.20
20856;DHT22;63058;49.424;8.420;2022-09-01T18:04:13;28.20;44.00
20856;DHT22;63058;49.424;8.420;2022-09-01T18:06:49;28.10;44.10
20856;DHT22;63058;49.424;8.420;2022-09-01T18:09:17;28.10;44.80
20856;DHT22;63058;49.424;8.420;2022-09-01T18:12:07;28.10;45.00
20856;DHT22;63058;49.424;8.420;2022-09-01T18:14:42;28.00;44.30
20856;DHT22;63058;49.424;8.420;2022-09-01T18:17:21;28.00;45.00
20856;DHT22;63058;49.424;8.420;2022-09-01T18:20:03;27.90;45.00
20856;DHT22;63058;49.424;8.420;2022-09-01T18:22:45;27.80;44.90